Time;durP1;ratioP1;P1;durP2;ratioP2;P2;SDS_P1;SDS_P2;PMS_P1;PMS_P2;Temp;Humidity;BMP_temperature;BMP_pressure;BME280_temperature;BME280_humidity;BME280_pressure;Samples;Min_cycle;Max_cycle;Signal;HPM_P1;HPM_P2
2022/06/16 00:00:00;;;;;;;3.22;2.20;;;;;18.00;94279.00;;;;7398850;19;20141;-73
2022/06/16 00:02:27;;;;;;;3.58;2.28;;;;;17.90;94279.00;;;;7395590;19;20237;-73
2022/06/16 00:04:55;;;;;;;5.63;2.38;;;;;17.70;94273.00;;;;7395948;19;20137;-76
2022/06/16 00:07:29;;;;;;;3.65;2.50;;;;;17.40;94281.00;;;;7397526;19;20153;-72
2022/06/16 00:09:56;;;;;;;3.80;2.15;;;;;17.50;94271.00;;;;7395585;19;20508;-73
2022/06/16 00:12:24;;;;;;;3.22;2.20;;;;;17.50;94264.00;;;;7396860;19;20133;-75
2022/06/16 00:15:05;;;;;;;3.15;2.20;;;;;17.80;94256.00;;;;7395433;19;20813;-74
2022/06/16 00:17:33;;;;;;;5.38;2.55;;;;;18.00;94263.00;;;;7397194;19;20136;-73
2022/06/16 00:20:08;;;;;;;6.97;2.70;;;;;18.00;94261.00;;;;7396147;19;20124;-76
2022/06/16 00:22:36;;;;;;;6.65;2.53;;;;;18.00;94259.00;;;;7397174;19;20180;-73
2022/06/16 00:25:05;;;;;;;7.30;2.53;;;;;17.80;94261.00;;;;7394937;19;20193;-74
2022/06/16 00:27:40;;;;;;;5.60;2.30;;;;;17.70;94256.00;;;;7397730;19;20489;-73
2022/06/16 00:30:10;;;;;;;4.13;2.50;;;;;17.60;94265.00;;;;7398778;19;20129;-75
2022/06/16 00:32:39;;;;;;;4.30;2.60;;;;;17.60;94259.00;;;;7394176;19;20503;-75
2022/06/16 00:35:13;;;;;;;3.75;2.50;;;;;17.80;94246.00;;;;7392836;19;20132;-73
2022/06/16 00:37:40;;;;;;;4.30;2.53;;;;;17.80;94250.00;;;;7395606;19;20176;-72
2022/06/16 00:40:09;;;;;;;4.75;2.75;;;;;17.90;94248.00;;;;7394339;19;20157;-71
2022/06/16 00:42:46;;;;;;;2.65;2.45;;;;;17.90;94244.00;;;;7398556;19;20220;-74
2022/06/16 00:45:44;;;;;;;3.30;2.38;;;;;18.00;94247.00;;;;7393931;19;20160;-73
2022/06/16 00:48:41;;;;;;;3.90;2.75;;;;;18.10;94237.00;;;;7396586;19;20643;-73
2022/06/16 00:51:26;;;;;;;2.92;2.45;;;;;17.80;94240.00;;;;7395162;19;20173;-74
2022/06/16 00:54:11;;;;;;;3.08;2.20;;;;;17.80;94237.00;;;;7399094;19;20149;-76
2022/06/16 00:56:38;;;;;;;6.43;2.35;;;;;17.80;94231.00;;;;7395340;19;20182;-74
2022/06/16 00:59:13;;;;;;;7.30;2.53;;;;;17.90;94234.00;;;;7393387;19;20144;-74
2022/06/16 01:01:43;;;;;;;2.83;2.40;;;;;17.80;94230.00;;;;7395108;19;20151;-75
2022/06/16 01:07:14;;;;;;;2.40;2.20;;;;;17.70;94226.00;;;;7393458;19;20133;-74
2022/06/16 01:09:43;;;;;;;5.00;2.47;;;;;17.80;94221.00;;;;7392038;19;20160;-74
2022/06/16 01:15:31;;;;;;;3.05;2.42;;;;;17.70;94235.00;;;;7393666;19;20160;-74
2022/06/16 01:18:27;;;;;;;3.30;2.30;;;;;17.60;94238.00;;;;7393101;19;20156;-75
2022/06/16 01:21:34;;;;;;;3.25;2.35;;;;;17.90;94231.00;;;;7396518;19;20635;-74
2022/06/16 01:24:08;;;;;;;3.40;2.40;;;;;17.90;94222.00;;;;7393051;19;20156;-74
2022/06/16 01:27:08;;;;;;;4.38;2.50;;;;;18.10;94214.00;;;;7397766;19;20132;-74
2022/06/16 01:29:41;;;;;;;6.32;2.55;;;;;18.00;94216.00;;;;7392604;19;20742;-73
2022/06/16 01:32:20;;;;;;;5.53;2.22;;;;;17.90;94221.00;;;;7395683;19;20156;-72
2022/06/16 01:35:13;;;;;;;3.05;2.17;;;;;17.90;94210.00;;;;7391955;19;20160;-75
2022/06/16 01:37:58;;;;;;;5.15;2.30;;;;;17.80;94213.00;;;;7395341;19;20125;-74
2022/06/16 01:40:32;;;;;;;3.58;2.38;;;;;17.80;94219.00;;;;7392850;19;20156;-73
2022/06/16 01:43:25;;;;;;;4.68;2.55;;;;;17.80;94214.00;;;;7393560;19;20132;-74
2022/06/16 01:46:11;;;;;;;4.90;2.30;;;;;17.90;94209.00;;;;7392899;19;20153;-72
2022/06/16 01:48:50;;;;;;;4.00;2.30;;;;;18.00;94211.00;;;;7392162;19;20156;-74
2022/06/16 01:51:17;;;;;;;2.42;2.17;;;;;18.20;94200.00;;;;7397012;19;20154;-74
2022/06/16 01:53:59;;;;;;;3.13;2.58;;;;;18.40;94203.00;;;;7392230;19;20228;-74
2022/06/16 01:56:47;;;;;;;2.83;2.53;;;;;18.50;94198.00;;;;7388891;19;20175;-76
2022/06/16 01:59:48;;;;;;;3.78;2.53;;;;;18.50;94193.00;;;;7393887;19;20136;-74
2022/06/16 02:02:25;;;;;;;3.45;2.28;;;;;18.70;94196.00;;;;7391778;19;20603;-75
2022/06/16 02:05:17;;;;;;;2.50;2.30;;;;;18.60;94199.00;;;;7393777;19;20132;-75
2022/06/16 02:08:13;;;;;;;6.50;2.22;;;;;18.40;94200.00;;;;7394516;19;20133;-74
2022/06/16 02:10:48;;;;;;;2.33;2.10;;;;;18.40;94206.00;;;;7390905;19;20155;-74
2022/06/16 02:13:34;;;;;;;4.15;2.38;;;;;18.10;94195.00;;;;7389396;19;20178;-74
2022/06/16 02:16:25;;;;;;;2.50;2.30;;;;;17.70;94195.00;;;;7387554;19;20157;-74
2022/06/16 02:19:01;;;;;;;3.25;2.25;;;;;17.40;94195.00;;;;7390043;19;20198;-74
2022/06/16 02:21:39;;;;;;;5.03;2.35;;;;;17.50;94185.00;;;;7386109;19;20607;-74
2022/06/16 02:24:17;;;;;;;3.58;2.05;;;;;17.40;94183.00;;;;7391279;19;20136;-73
2022/06/16 02:26:45;;;;;;;2.63;2.38;;;;;17.60;94189.00;;;;7388325;19;20140;-74
2022/06/16 02:29:30;;;;;;;2.47;2.25;;;;;17.70;94186.00;;;;7391905;19;20577;-74
2022/06/16 02:32:40;;;;;;;2.00;1.80;;;;;17.50;94184.00;;;;7393447;19;20620;-75
2022/06/16 02:35:08;;;;;;;3.08;2.15;;;;;17.50;94181.00;;;;7390638;19;20626;-73
2022/06/16 02:38:01;;;;;;;3.25;2.28;;;;;17.40;94177.00;;;;7391337;19;20156;-74
2022/06/16 02:40:54;;;;;;;8.25;2.47;;;;;17.30;94178.00;;;;7391181;19;20136;-74
2022/06/16 02:43:53;;;;;;;2.95;2.20;;;;;17.30;94180.00;;;;7392836;19;20158;-73
2022/06/16 02:46:44;;;;;;;4.75;2.58;;;;;17.30;94177.00;;;;7392065;19;20152;-74
2022/06/16 02:49:39;;;;;;;3.60;2.20;;;;;17.30;94176.00;;;;7394098;19;20140;-73
2022/06/16 02:52:38;;;;;;;3.72;2.38;;;;;17.50;94171.00;;;;7391364;19;20125;-75
2022/06/16 02:55:23;;;;;;;4.57;2.30;;;;;17.40;94180.00;;;;7390432;19;20179;-73
2022/06/16 02:57:57;;;;;;;2.78;2.38;;;;;17.40;94179.00;;;;7389395;19;20173;-75
2022/06/16 03:00:44;;;;;;;2.95;2.17;;;;;17.40;94173.00;;;;7393402;19;20144;-73
2022/06/16 03:03:27;;;;;;;3.15;2.47;;;;;17.40;94170.00;;;;7392603;19;21161;-74
2022/06/16 03:06:02;;;;;;;4.97;2.45;;;;;17.40;94171.00;;;;7389688;19;20152;-76
2022/06/16 03:08:31;;;;;;;3.20;2.55;;;;;17.40;94182.00;;;;7392635;19;20165;-75
2022/06/16 03:10:59;;;;;;;3.25;2.50;;;;;17.40;94164.00;;;;7388995;19;20153;-74
2022/06/16 03:13:39;;;;;;;4.18;2.13;;;;;17.30;94170.00;;;;7390551;19;20177;-75
2022/06/16 03:16:13;;;;;;;3.53;2.20;;;;;17.30;94172.00;;;;7391626;19;20149;-74
2022/06/16 03:18:49;;;;;;;3.78;2.22;;;;;17.40;94168.00;;;;7390898;19;20129;-74
2022/06/16 03:21:17;;;;;;;4.75;2.20;;;;;17.30;94184.00;;;;7389724;19;20632;-74
2022/06/16 03:23:44;;;;;;;4.97;2.55;;;;;17.40;94188.00;;;;7393638;19;20139;-72
2022/06/16 03:26:19;;;;;;;3.22;2.22;;;;;17.70;94192.00;;;;7391705;19;20608;-75
2022/06/16 03:28:47;;;;;;;2.63;2.20;;;;;17.90;94191.00;;;;7391225;19;20144;-74
2022/06/16 03:31:14;;;;;;;2.30;2.08;;;;;18.20;94196.00;;;;7398082;19;20151;-77
2022/06/16 03:33:49;;;;;;;3.55;2.53;;;;;18.60;94194.00;;;;7399613;19;20154;-75
2022/06/16 03:36:17;;;;;;;2.83;2.15;;;;;18.60;94191.00;;;;7398794;19;20640;-74
2022/06/16 03:38:44;;;;;;;2.40;2.20;;;;;18.60;94195.00;;;;7399786;19;20632;-75
2022/06/16 03:41:19;;;;;;;4.00;2.40;;;;;18.60;94200.00;;;;7398090;19;20140;-73
2022/06/16 03:43:46;;;;;;;3.83;2.30;;;;;18.70;94204.00;;;;7398403;19;20620;-73
2022/06/16 03:46:16;;;;;;;5.53;2.50;;;;;18.80;94199.00;;;;7399036;19;20157;-74
2022/06/16 03:48:50;;;;;;;5.40;2.38;;;;;18.90;94205.00;;;;7396800;19;20593;-74
2022/06/16 03:51:18;;;;;;;2.50;2.03;;;;;18.90;94201.00;;;;7397710;19;20157;-75
2022/06/16 03:53:46;;;;;;;3.97;2.40;;;;;18.80;94200.00;;;;7399654;19;20156;-73
2022/06/16 03:56:21;;;;;;;4.50;2.60;;;;;18.60;94209.00;;;;7399309;19;20140;-74
2022/06/16 03:58:53;;;;;;;4.05;2.20;;;;;18.50;94213.00;;;;7398463;19;20163;-73
2022/06/16 04:01:21;;;;;;;5.15;2.42;;;;;18.50;94216.00;;;;7398719;19;20197;-75
2022/06/16 04:04:01;;;;;;;3.58;2.30;;;;;18.40;94206.00;;;;7400005;19;20696;-73
2022/06/16 04:06:32;;;;;;;7.18;2.50;;;;;18.50;94218.00;;;;7398848;19;20170;-73
2022/06/16 04:09:06;;;;;;;3.35;2.25;;;;;18.40;94218.00;;;;7399484;19;20136;-73
2022/06/16 04:11:41;;;;;;;4.20;2.40;;;;;18.50;94219.00;;;;7398530;19;20153;-73
2022/06/16 04:14:21;;;;;;;2.67;1.90;;;;;18.60;94218.00;;;;7395981;19;20155;-75
2022/06/16 04:16:52;;;;;;;3.10;2.35;;;;;18.50;94225.00;;;;7396194;19;20160;-73
2022/06/16 04:19:26;;;;;;;2.40;2.05;;;;;18.80;94227.00;;;;7394982;19;20225;-75
2022/06/16 04:21:53;;;;;;;2.25;1.95;;;;;18.80;94225.00;;;;7395527;19;20172;-75
2022/06/16 04:24:23;;;;;;;3.70;2.45;;;;;18.60;94225.00;;;;7398211;19;20136;-73
2022/06/16 04:26:57;;;;;;;2.67;2.40;;;;;18.80;94225.00;;;;7396699;19;20173;-74
2022/06/16 04:29:25;;;;;;;5.10;2.50;;;;;18.70;94226.00;;;;7397532;19;20484;-76
2022/06/16 04:31:53;;;;;;;4.20;2.53;;;;;18.70;94232.00;;;;7394768;19;20149;-74
2022/06/16 04:34:27;;;;;;;2.58;2.08;;;;;18.50;94234.00;;;;7397916;19;20140;-73
2022/06/16 04:36:54;;;;;;;3.45;2.20;;;;;18.30;94234.00;;;;7396762;19;20148;-74
2022/06/16 04:39:25;;;;;;;3.65;2.22;;;;;18.20;94226.00;;;;7397003;19;20153;-73
2022/06/16 04:41:59;;;;;;;4.80;2.30;;;;;18.10;94243.00;;;;7395439;19;20165;-75
2022/06/16 04:44:27;;;;;;;3.33;2.30;;;;;18.30;94239.00;;;;7397792;19;20145;-75
2022/06/16 04:46:54;;;;;;;7.13;2.53;;;;;18.80;94237.00;;;;7397216;19;20603;-76
2022/06/16 04:49:29;;;;;;;5.90;2.67;;;;;19.00;94228.00;;;;7393497;19;20148;-74
2022/06/16 04:51:56;;;;;;;5.22;2.35;;;;;19.20;94230.00;;;;7396946;19;20161;-75
2022/06/16 04:54:24;;;;;;;3.03;2.55;;;;;19.30;94228.00;;;;7397806;19;20170;-74
2022/06/16 04:56:58;;;;;;;3.15;2.60;;;;;19.40;94228.00;;;;7394711;19;20149;-73
2022/06/16 04:59:26;;;;;;;4.63;2.83;;;;;19.40;94229.00;;;;7395260;19;20217;-75
2022/06/16 05:01:54;;;;;;;3.90;2.90;;;;;19.50;94228.00;;;;7395742;19;20140;-75
2022/06/16 05:04:28;;;;;;;3.55;2.60;;;;;19.80;94229.00;;;;7396432;19;20596;-73
2022/06/16 05:07:01;;;;;;;4.88;2.38;;;;;19.80;94236.00;;;;7396001;19;20539;-74
2022/06/16 05:09:36;;;;;;;3.67;2.60;;;;;19.80;94232.00;;;;7396260;19;20739;-73
2022/06/16 05:12:04;;;;;;;6.50;2.40;;;;;20.20;94228.00;;;;7395821;19;20612;-75
2022/06/16 05:14:32;;;;;;;4.63;2.50;;;;;20.50;94230.00;;;;7393452;19;20510;-74
2022/06/16 05:17:12;;;;;;;6.90;2.80;;;;;20.90;94234.00;;;;7396248;19;20721;-74
2022/06/16 05:19:40;;;;;;;4.85;2.40;;;;;21.30;94226.00;;;;7395029;19;20158;-75
2022/06/16 05:22:14;;;;;;;5.72;2.42;;;;;21.70;94231.00;;;;7393561;19;20176;-74
2022/06/16 05:24:42;;;;;;;2.83;2.28;;;;;21.80;94235.00;;;;7396356;19;20216;-73
2022/06/16 05:27:15;;;;;;;4.55;2.38;;;;;21.50;94245.00;;;;7392919;19;20143;-74
2022/06/16 05:29:50;;;;;;;7.35;2.80;;;;;21.30;94249.00;;;;7393179;19;20151;-73
2022/06/16 05:32:17;;;;;;;3.70;2.28;;;;;21.30;94239.00;;;;7392476;19;20164;-74
2022/06/16 05:34:45;;;;;;;3.60;2.38;;;;;21.30;94257.00;;;;7394796;19;20140;-74
2022/06/16 05:37:20;;;;;;;4.13;2.50;;;;;21.10;94260.00;;;;7394757;19;20117;-74
2022/06/16 05:39:49;;;;;;;3.33;2.53;;;;;20.90;94261.00;;;;7394244;19;20464;-73
2022/06/16 05:42:17;;;;;;;3.45;2.40;;;;;21.10;94260.00;;;;7391168;19;20454;-74
2022/06/16 05:44:52;;;;;;;2.92;2.30;;;;;21.20;94263.00;;;;7392618;19;20124;-73
2022/06/16 05:47:19;;;;;;;6.18;2.33;;;;;21.30;94263.00;;;;7392851;19;20149;-72
2022/06/16 05:49:47;;;;;;;2.97;2.38;;;;;21.70;94258.00;;;;7393852;19;20228;-74
2022/06/16 05:52:22;;;;;;;3.75;2.40;;;;;21.90;94261.00;;;;7389667;19;20162;-75
2022/06/16 05:54:50;;;;;;;4.60;2.58;;;;;22.20;94264.00;;;;7392987;19;20157;-74
2022/06/16 05:57:18;;;;;;;5.15;2.63;;;;;22.50;94260.00;;;;7396916;19;20145;-75
2022/06/16 05:59:52;;;;;;;2.80;2.40;;;;;22.80;94266.00;;;;7392697;19;20147;-75
2022/06/16 06:02:21;;;;;;;7.40;2.60;;;;;23.10;94265.00;;;;7391749;19;20526;-74
2022/06/16 06:04:48;;;;;;;5.38;2.70;;;;;23.20;94256.00;;;;7392319;19;20156;-77
2022/06/16 06:07:23;;;;;;;5.00;2.70;;;;;23.30;94269.00;;;;7393524;19;20144;-74
2022/06/16 06:18:40;;;;;;;5.78;2.53;;;;;22.90;94267.00;;;;7391645;19;20153;-76
2022/06/16 06:21:07;;;;;;;4.88;2.70;;;;;22.90;94267.00;;;;7390234;19;20173;-77
2022/06/16 06:23:35;;;;;;;4.50;2.47;;;;;23.00;94283.00;;;;7393334;19;20157;-73
2022/06/16 06:26:12;;;;;;;3.03;2.70;;;;;23.10;94274.00;;;;7391210;19;20152;-74
2022/06/16 06:28:39;;;;;;;3.90;2.47;;;;;23.10;94281.00;;;;7392544;19;20153;-74
2022/06/16 06:31:07;;;;;;;4.38;2.95;;;;;22.90;94282.00;;;;7392053;19;20483;-76
2022/06/16 06:33:41;;;;;;;3.63;2.58;;;;;23.20;94283.00;;;;7389759;19;20632;-74
2022/06/16 06:36:08;;;;;;;3.25;2.40;;;;;23.60;94280.00;;;;7391011;19;20200;-74
2022/06/16 06:38:36;;;;;;;4.00;2.90;;;;;24.00;94292.00;;;;7391415;19;20499;-76
2022/06/16 06:41:10;;;;;;;6.57;2.83;;;;;24.30;94287.00;;;;7394213;19;20619;-75
2022/06/16 06:43:37;;;;;;;5.90;2.70;;;;;24.50;94299.00;;;;7393354;19;20149;-74
2022/06/16 06:46:06;;;;;;;7.13;3.30;;;;;24.50;94301.00;;;;7389461;19;20880;-74
2022/06/16 06:48:42;;;;;;;5.95;2.90;;;;;24.50;94292.00;;;;7385026;19;20208;-74
2022/06/16 06:51:09;;;;;;;3.92;2.78;;;;;24.70;94301.00;;;;7389919;19;20196;-75
2022/06/16 06:53:37;;;;;;;4.07;2.70;;;;;24.10;94316.00;;;;7392374;19;20132;-74
2022/06/16 06:56:14;;;;;;;6.18;3.00;;;;;24.00;94312.00;;;;7390375;19;20173;-74
2022/06/16 06:58:42;;;;;;;3.88;2.65;;;;;23.90;94318.00;;;;7393392;19;20643;-74
2022/06/16 07:01:09;;;;;;;3.83;3.10;;;;;24.20;94311.00;;;;7391832;19;20156;-75
2022/06/16 07:03:43;;;;;;;3.63;2.85;;;;;24.50;94316.00;;;;7391784;19;20148;-74
2022/06/16 07:06:11;;;;;;;3.95;3.00;;;;;24.60;94311.00;;;;7390126;19;20161;-73
2022/06/16 07:08:44;;;;;;;5.53;2.83;;;;;25.00;94309.00;;;;7392212;19;20152;-72
2022/06/16 07:11:47;;;;;;;9.20;2.80;;;;;25.20;94320.00;;;;7383485;19;20528;-74
2022/06/16 07:14:47;;;;;;;5.88;2.70;;;;;25.40;94321.00;;;;7390159;19;20685;-75
2022/06/16 07:17:29;;;;;;;3.20;2.90;;;;;25.20;94339.00;;;;7390583;19;20499;-74
2022/06/16 07:19:57;;;;;;;6.30;3.25;;;;;24.80;94336.00;;;;7391138;19;20156;-75
2022/06/16 07:22:37;;;;;;;4.15;2.95;;;;;24.60;94350.00;;;;7388070;19;20183;-73
2022/06/16 07:25:09;;;;;;;4.15;2.80;;;;;24.80;94339.00;;;;7391865;19;20215;-73
2022/06/16 07:28:05;;;;;;;3.97;3.30;;;;;24.80;94343.00;;;;7391772;19;20496;-74
2022/06/16 07:30:35;;;;;;;3.47;2.83;;;;;24.30;94357.00;;;;7385172;19;20516;-74
2022/06/16 07:33:12;;;;;;;6.90;3.20;;;;;24.40;94356.00;;;;7385895;19;20160;-74
2022/06/16 07:35:44;;;;;;;9.85;3.40;;;;;24.30;94364.00;;;;7393210;19;20145;-74
2022/06/16 07:38:26;;;;;;;4.45;3.45;;;;;23.70;94361.00;;;;7390805;19;20153;-73
2022/06/16 07:41:31;;;;;;;6.88;3.30;;;;;24.00;94366.00;;;;7387684;19;20216;-74
2022/06/16 07:43:49;;;;;;;7.78;3.22;;;;;23.90;94358.00;;;;7390979;19;20171;-74
2022/06/16 07:46:17;;;;;;;5.57;3.60;;;;;24.10;94377.00;;;;7390996;19;20182;-74
2022/06/16 07:48:45;;;;;;;5.30;3.17;;;;;23.80;94379.00;;;;7391164;19;20216;-73
2022/06/16 07:51:20;;;;;;;4.45;3.50;;;;;23.30;94393.00;;;;7386510;19;21228;-73
2022/06/16 07:53:51;;;;;;;4.75;3.60;;;;;22.80;94399.00;;;;7388905;19;20611;-73
2022/06/16 07:56:25;;;;;;;4.60;3.50;;;;;22.70;94399.00;;;;7388297;19;20204;-72
2022/06/16 07:58:59;;;;;;;6.25;4.30;;;;;22.50;94386.00;;;;7389078;19;20137;-73
2022/06/16 08:01:27;;;;;;;7.28;3.72;;;;;22.90;94382.00;;;;7389007;19;20179;-74
2022/06/16 08:03:56;;;;;;;5.70;4.00;;;;;23.40;94395.00;;;;7389655;19;20152;-74
2022/06/16 08:06:31;;;;;;;4.70;4.22;;;;;23.80;94389.00;;;;7388994;19;20187;-73
2022/06/16 08:08:59;;;;;;;6.13;3.95;;;;;23.50;94391.00;;;;7388068;19;20182;-72
2022/06/16 08:14:39;;;;;;;6.40;3.92;;;;;23.60;94402.00;;;;7385294;19;20197;-74
2022/06/16 08:17:25;;;;;;;7.10;4.13;;;;;23.70;94398.00;;;;7395908;19;20152;-72
2022/06/16 08:20:04;;;;;;;5.65;3.67;;;;;23.90;94408.00;;;;7397352;19;20140;-74
2022/06/16 08:22:33;;;;;;;7.32;4.20;;;;;24.20;94407.00;;;;7391760;19;20516;-74
2022/06/16 08:25:08;;;;;;;4.10;3.70;;;;;23.90;94406.00;;;;7394606;19;20170;-72
2022/06/16 08:27:38;;;;;;;7.10;4.13;;;;;23.90;94412.00;;;;7394406;19;20216;-72
2022/06/16 08:30:11;;;;;;;7.45;3.80;;;;;24.40;94413.00;;;;7394261;19;20189;-72
2022/06/16 08:32:51;;;;;;;8.80;4.35;;;;;24.00;94425.00;;;;7392437;19;20182;-74
2022/06/16 08:35:21;;;;;;;5.65;4.13;;;;;24.20;94419.00;;;;7397424;19;20140;-75
2022/06/16 08:38:00;;;;;;;5.82;4.07;;;;;24.00;94423.00;;;;7394522;19;20179;-75
2022/06/16 08:40:33;;;;;;;8.80;3.80;;;;;24.10;94425.00;;;;7396287;19;20202;-73
2022/06/16 08:43:24;;;;;;;9.85;4.25;;;;;24.20;94420.00;;;;7395451;19;20152;-73
2022/06/16 08:45:58;;;;;;;4.43;3.83;;;;;24.60;94419.00;;;;7395975;19;20153;-73
2022/06/16 08:48:45;;;;;;;4.47;4.03;;;;;24.30;94441.00;;;;7394620;19;20129;-75
2022/06/16 08:51:51;;;;;;;8.60;3.72;;;;;24.30;94446.00;;;;7395622;19;20149;-75
2022/06/16 08:54:48;;;;;;;4.97;3.90;;;;;24.10;94446.00;;;;7390148;19;20153;-73
2022/06/16 08:57:24;;;;;;;7.38;3.90;;;;;24.00;94441.00;;;;7394519;19;20137;-74
2022/06/16 09:00:09;;;;;;;7.35;4.00;;;;;24.50;94450.00;;;;7392984;19;20911;-78
2022/06/16 09:02:50;;;;;;;5.18;3.47;;;;;24.90;94444.00;;;;7395402;19;20512;-73
2022/06/16 09:05:49;;;;;;;4.57;3.70;;;;;24.70;94446.00;;;;7394561;19;20156;-74
2022/06/16 09:08:35;;;;;;;9.45;3.95;;;;;24.40;94453.00;;;;7397165;19;20135;-74
2022/06/16 09:11:21;;;;;;;6.85;3.47;;;;;24.70;94453.00;;;;7393609;19;20589;-74
2022/06/16 09:14:13;;;;;;;5.90;3.63;;;;;24.80;94454.00;;;;7391383;19;20176;-76
2022/06/16 09:17:08;;;;;;;7.35;3.70;;;;;24.70;94462.00;;;;7388592;19;20155;-75
2022/06/16 09:19:49;;;;;;;4.95;3.60;;;;;24.70;94458.00;;;;7395686;19;20593;-71
2022/06/16 09:22:52;;;;;;;5.82;3.38;;;;;25.00;94450.00;;;;7394765;19;20644;-74
2022/06/16 09:25:32;;;;;;;5.30;3.80;;;;;25.60;94452.00;;;;7392854;19;20674;-75
2022/06/16 09:28:37;;;;;;;7.70;3.65;;;;;25.10;94457.00;;;;7398920;19;20136;-73
2022/06/16 09:31:16;;;;;;;5.85;3.65;;;;;25.40;94445.00;;;;7397560;19;20603;-75
2022/06/16 09:33:57;;;;;;;7.82;3.55;;;;;25.20;94458.00;;;;7388216;19;20221;-73
2022/06/16 09:36:33;;;;;;;7.03;3.60;;;;;25.50;94451.00;;;;7394551;19;20148;-73
2022/06/16 09:39:25;;;;;;;5.68;3.80;;;;;25.70;94463.00;;;;7396677;19;20581;-75
2022/06/16 09:42:33;;;;;;;5.38;3.85;;;;;25.20;94449.00;;;;7392116;19;20140;-74
2022/06/16 09:45:13;;;;;;;6.47;3.10;;;;;25.70;94451.00;;;;7395915;19;20623;-75
2022/06/16 09:48:05;;;;;;;5.82;3.10;;;;;26.20;94456.00;;;;7396941;19;20153;-75
2022/06/16 09:50:55;;;;;;;6.80;3.45;;;;;25.90;94461.00;;;;7393386;19;20150;-75
2022/06/16 09:53:38;;;;;;;5.72;3.53;;;;;25.80;94461.00;;;;7388452;19;20159;-75
2022/06/16 09:56:33;;;;;;;6.22;3.53;;;;;25.40;94480.00;;;;7384382;19;20140;-76
2022/06/16 09:59:11;;;;;;;6.30;3.38;;;;;25.50;94470.00;;;;7389727;19;20155;-74
2022/06/16 10:01:59;;;;;;;6.30;3.30;;;;;25.50;94480.00;;;;7387520;19;20159;-76
2022/06/16 10:04:27;;;;;;;7.65;3.65;;;;;25.60;94473.00;;;;7385947;19;20169;-76
2022/06/16 10:07:34;;;;;;;4.00;3.30;;;;;26.30;94482.00;;;;7389988;19;20165;-73
2022/06/16 10:10:23;;;;;;;5.30;3.35;;;;;26.70;94485.00;;;;7389423;19;20141;-74
2022/06/16 10:13:09;;;;;;;4.35;3.55;;;;;27.20;94500.00;;;;7389722;19;20596;-76
2022/06/16 10:15:54;;;;;;;4.22;3.08;;;;;27.10;94491.00;;;;7384368;19;20176;-73
2022/06/16 10:18:29;;;;;;;5.43;4.00;;;;;27.30;94498.00;;;;7388100;19;20191;-74
2022/06/16 10:20:59;;;;;;;5.28;3.22;;;;;27.00;94500.00;;;;7385139;19;20151;-75
2022/06/16 10:23:34;;;;;;;6.78;3.50;;;;;27.40;94506.00;;;;7387730;19;20181;-77
2022/06/16 10:26:09;;;;;;;3.78;3.42;;;;;27.60;94510.00;;;;7385759;19;20137;-75
2022/06/16 10:28:49;;;;;;;3.88;3.17;;;;;27.30;94507.00;;;;7388403;19;20629;-74
2022/06/16 10:31:43;;;;;;;6.88;3.83;;;;;26.80;94520.00;;;;7387973;19;20603;-73
2022/06/16 10:34:38;;;;;;;6.68;2.90;;;;;27.20;94523.00;;;;7385237;19;20604;-76
2022/06/16 10:37:24;;;;;;;6.88;3.38;;;;;26.60;94527.00;;;;7385323;19;20680;-75
2022/06/16 10:40:06;;;;;;;5.10;3.58;;;;;26.20;94534.00;;;;7385922;19;20129;-74
2022/06/16 10:42:54;;;;;;;6.70;3.35;;;;;27.10;94526.00;;;;7389030;19;20161;-78
2022/06/16 10:45:34;;;;;;;5.25;3.60;;;;;27.50;94530.00;;;;7386060;19;20595;-74
2022/06/16 10:48:18;;;;;;;3.95;3.10;;;;;27.60;94542.00;;;;7387907;19;20149;-74
2022/06/16 10:51:19;;;;;;;7.05;4.10;;;;;27.60;94546.00;;;;7383681;19;20145;-76
2022/06/16 10:54:15;;;;;;;6.05;3.67;;;;;27.50;94546.00;;;;7387938;19;20609;-75
2022/06/16 10:56:45;;;;;;;7.25;3.80;;;;;27.50;94550.00;;;;7384877;19;20148;-74
2022/06/16 10:59:27;;;;;;;10.05;4.32;;;;;27.20;94546.00;;;;7388053;19;20144;-74
2022/06/16 11:01:56;;;;;;;5.95;4.00;;;;;27.30;94554.00;;;;7387753;19;20191;-76
2022/06/16 11:04:39;;;;;;;8.55;4.30;;;;;27.20;94556.00;;;;7386998;19;20159;-77
2022/06/16 11:07:12;;;;;;;6.43;3.67;;;;;27.10;94550.00;;;;7384147;19;20494;-77
2022/06/16 11:09:50;;;;;;;5.47;3.63;;;;;26.70;94555.00;;;;7384296;19;20735;-74
2022/06/16 11:12:23;;;;;;;4.82;3.60;;;;;26.90;94556.00;;;;7391261;19;20148;-74
2022/06/16 11:15:37;;;;;;;7.28;3.80;;;;;27.50;94556.00;;;;7390189;19;20142;-75
2022/06/16 11:18:22;;;;;;;6.55;3.72;;;;;28.00;94566.00;;;;7391421;19;20505;-75
2022/06/16 11:21:01;;;;;;;7.80;3.85;;;;;28.00;94555.00;;;;7392048;19;20496;-75
2022/06/16 11:23:41;;;;;;;7.38;3.72;;;;;28.40;94564.00;;;;7389614;19;20156;-73
2022/06/16 11:26:36;;;;;;;6.13;3.97;;;;;27.90;94571.00;;;;7389382;19;21040;-76
2022/06/16 11:29:12;;;;;;;5.43;3.80;;;;;28.50;94563.00;;;;7391231;19;20168;-75
2022/06/16 11:32:18;;;;;;;;;;;;;;;;;;;;;
2022/06/16 11:35:01;;;;;;;8.65;3.70;;;;;28.60;94566.00;;;;7390222;19;20546;-77
2022/06/16 11:38:00;;;;;;;5.00;3.70;;;;;28.80;94561.00;;;;7385051;19;20152;-75
2022/06/16 11:40:40;;;;;;;5.97;3.90;;;;;29.10;94565.00;;;;7390839;19;20137;-75
2022/06/16 11:43:23;;;;;;;5.00;3.70;;;;;29.40;94562.00;;;;7389159;19;20604;-74
2022/06/16 11:46:10;;;;;;;5.43;4.00;;;;;29.00;94568.00;;;;7386126;19;20858;-75
2022/06/16 11:49:06;;;;;;;4.15;3.20;;;;;28.40;94570.00;;;;7391384;19;20141;-75
2022/06/16 11:51:54;;;;;;;4.68;3.70;;;;;28.20;94564.00;;;;7395447;19;20152;-75
2022/06/16 11:54:37;;;;;;;6.35;3.83;;;;;28.40;94569.00;;;;7395808;19;20156;-75
2022/06/16 11:57:16;;;;;;;6.90;4.03;;;;;28.20;94563.00;;;;7395140;19;20152;-76
2022/06/16 11:59:54;;;;;;;5.75;3.22;;;;;28.10;94559.00;;;;7399339;19;20153;-73
2022/06/16 12:02:58;;;;;;;7.13;3.78;;;;;28.60;94557.00;;;;7398221;19;20160;-74
2022/06/16 12:05:39;;;;;;;6.55;3.75;;;;;28.70;94563.00;;;;7397303;19;20149;-76
2022/06/16 12:08:25;;;;;;;4.25;3.53;;;;;28.70;94557.00;;;;7395047;19;20148;-76
2022/06/16 12:11:13;;;;;;;6.35;3.40;;;;;28.50;94559.00;;;;7397005;19;20152;-75
2022/06/16 12:13:56;;;;;;;5.15;3.88;;;;;28.50;94563.00;;;;7398727;19;20652;-76
2022/06/16 12:16:42;;;;;;;6.97;3.58;;;;;28.60;94554.00;;;;7393972;19;20137;-75
2022/06/16 12:19:59;;;;;;;6.10;3.00;;;;;28.90;94555.00;;;;7396287;19;20152;-76
2022/06/16 12:23:18;;;;;;;5.85;3.30;;;;;28.30;94547.00;;;;7389364;19;20204;-74
2022/06/16 12:26:37;;;;;;;6.70;3.28;;;;;28.30;94557.00;;;;7395748;19;20149;-75
2022/06/16 12:29:40;;;;;;;4.45;3.08;;;;;28.30;94558.00;;;;7393750;19;20603;-75
2022/06/16 12:32:22;;;;;;;6.20;3.65;;;;;28.70;94542.00;;;;7390381;19;20153;-76
2022/06/16 12:35:39;;;;;;;3.10;2.80;;;;;28.30;94548.00;;;;7394892;19;20234;-74
2022/06/16 12:38:19;;;;;;;2.92;2.63;;;;;28.70;94546.00;;;;7388897;19;20157;-75
2022/06/16 12:41:26;;;;;;;5.22;2.92;;;;;28.70;94548.00;;;;7393353;19;20536;-76
2022/06/16 12:44:15;;;;;;;7.07;3.47;;;;;28.60;94546.00;;;;7392203;19;20164;-75
2022/06/16 12:46:56;;;;;;;3.47;3.10;;;;;28.80;94556.00;;;;7390802;19;20645;-74
2022/06/16 12:49:45;;;;;;;3.80;2.78;;;;;27.70;94554.00;;;;7391067;19;20133;-75
2022/06/16 12:52:44;;;;;;;3.25;2.95;;;;;28.90;94553.00;;;;7387080;19;20505;-77
2022/06/16 12:55:25;;;;;;;6.28;2.95;;;;;28.60;94555.00;;;;7388830;19;20153;-75
2022/06/16 12:58:11;;;;;;;6.57;3.22;;;;;28.60;94554.00;;;;7389370;19;20157;-74
2022/06/16 13:00:47;;;;;;;5.80;3.50;;;;;29.20;94551.00;;;;7391230;19;20160;-74
2022/06/16 13:03:44;;;;;;;4.65;3.30;;;;;28.90;94556.00;;;;7391376;19;20596;-74
2022/06/16 13:06:13;;;;;;;5.63;3.10;;;;;28.90;94567.00;;;;7391239;19;20516;-75
2022/06/16 13:08:55;;;;;;;3.97;2.85;;;;;28.70;94571.00;;;;7391193;19;20156;-76
2022/06/16 13:11:33;;;;;;;4.07;2.72;;;;;28.70;94566.00;;;;7390075;19;20510;-77
2022/06/16 13:14:19;;;;;;;6.43;4.78;;;;;28.10;94574.00;;;;7390479;19;20251;-75
2022/06/16 13:17:02;;;;;;;5.15;3.20;;;;;28.20;94582.00;;;;7390371;19;20160;-74
2022/06/16 13:19:55;;;;;;;5.55;3.80;;;;;28.30;94580.00;;;;7389517;19;20187;-75
2022/06/16 13:22:55;;;;;;;5.45;3.13;;;;;28.50;94576.00;;;;7389486;19;20612;-74
2022/06/16 13:25:50;;;;;;;4.32;3.05;;;;;28.80;94574.00;;;;7389167;19;20767;-76
2022/06/16 13:28:32;;;;;;;5.30;3.10;;;;;28.60;94572.00;;;;7387231;19;20620;-76
2022/06/16 13:31:24;;;;;;;4.43;2.95;;;;;28.40;94578.00;;;;7391166;19;20648;-75
2022/06/16 13:34:00;;;;;;;4.55;3.20;;;;;28.70;94579.00;;;;7388284;19;20136;-75
2022/06/16 13:36:40;;;;;;;5.75;3.33;;;;;28.50;94582.00;;;;7389527;19;20153;-76